createdAt,value
2023-04-09T00:03:59.002Z,44.10
2023-04-09T00:08:00.753Z,39.10
2023-04-09T00:12:03.402Z,37.88
2023-04-09T00:16:05.241Z,39.88
2023-04-09T00:20:07.879Z,33.72
2023-04-09T00:24:09.375Z,31.25
2023-04-09T00:28:10.996Z,36.28
2023-04-09T00:32:12.519Z,32.28
2023-04-09T00:36:14.101Z,34.45
2023-04-09T00:40:15.869Z,37.70
2023-04-09T00:44:17.433Z,37.55
2023-04-09T00:48:19.144Z,35.28
2023-04-09T00:52:21.387Z,34.88
2023-04-09T00:56:23.663Z,35.45
2023-04-09T01:00:25.484Z,33.00
2023-04-09T01:04:27.003Z,40.75
2023-04-09T01:08:33.398Z,39.03
2023-04-09T01:12:52.010Z,42.28
2023-04-09T01:17:05.622Z,43.80
2023-04-09T01:21:13.014Z,34.40
2023-04-09T01:25:50.398Z,37.45
2023-04-09T01:29:53.531Z,39.58
2023-04-09T01:33:55.574Z,36.08
2023-04-09T01:37:58.270Z,36.38
2023-04-09T01:42:00.863Z,36.47
2023-04-09T01:46:03.678Z,40.92
2023-04-09T01:50:05.893Z,34.63
2023-04-09T01:54:07.788Z,36.70
2023-04-09T01:58:09.396Z,38.05
2023-04-09T02:02:18.079Z,38.45
2023-04-09T02:06:34.619Z,38.95
2023-04-09T02:10:39.505Z,32.63
2023-04-09T02:14:41.453Z,32.97
2023-04-09T02:18:42.970Z,37.35
2023-04-09T02:22:45.663Z,34.00
2023-04-09T02:26:47.249Z,35.90
2023-04-09T02:30:48.719Z,39.80
2023-04-09T02:34:50.137Z,39.67
2023-04-09T02:38:51.784Z,35.08
2023-04-09T02:42:53.928Z,34.05
2023-04-09T02:46:56.215Z,37.15
2023-04-09T02:50:57.665Z,35.45
2023-04-09T02:54:59.082Z,33.88
2023-04-09T02:59:00.546Z,37.95
2023-04-09T03:03:02.309Z,34.97
2023-04-09T03:07:03.869Z,35.75
2023-04-09T03:11:05.380Z,39.65
2023-04-09T03:15:07.311Z,33.90
2023-04-09T03:19:08.777Z,32.80
2023-04-09T03:23:10.830Z,34.80
2023-04-09T03:27:12.256Z,32.55
2023-04-09T03:31:14.172Z,37.58
2023-04-09T03:35:15.817Z,36.50
2023-04-09T03:39:17.323Z,34.72
2023-04-09T03:43:18.768Z,31.65
2023-04-09T03:47:20.668Z,36.10
2023-04-09T03:51:22.160Z,39.85
2023-04-09T03:55:23.674Z,34.80
2023-04-09T03:59:25.259Z,39.92
2023-04-09T04:03:26.981Z,41.28
2023-04-09T04:07:28.458Z,34.78
2023-04-09T04:11:30.374Z,39.17
2023-04-09T04:15:31.895Z,38.05
2023-04-09T04:19:33.305Z,39.55
2023-04-09T04:23:34.817Z,39.60
2023-04-09T04:27:36.253Z,41.67
2023-04-09T04:31:37.776Z,45.80
2023-04-09T04:35:39.334Z,42.53
2023-04-09T04:39:40.876Z,44.58
2023-04-09T04:43:42.348Z,38.03
2023-04-09T04:47:43.824Z,34.72
2023-04-09T04:51:45.332Z,39.75
2023-04-09T04:55:46.937Z,42.80
2023-04-09T04:59:48.438Z,38.20
2023-04-09T05:03:49.986Z,38.08
2023-04-09T05:07:51.674Z,41.13
2023-04-09T05:11:53.190Z,34.65
2023-04-09T05:15:54.683Z,36.88
2023-04-09T05:19:57.779Z,37.75
2023-04-09T05:23:59.213Z,36.22
2023-04-09T05:28:00.879Z,41.83
2023-04-09T05:32:02.568Z,37.53
2023-04-09T05:36:04.789Z,45.08
2023-04-09T05:40:06.765Z,39.10
2023-04-09T05:44:08.233Z,39.40
2023-04-09T05:48:09.759Z,48.40
2023-04-09T05:52:11.267Z,36.88
2023-04-09T05:56:16.151Z,44.72
2023-04-09T06:00:18.371Z,40.10
2023-04-09T06:04:20.071Z,39.80
2023-04-09T06:08:21.617Z,61.58
2023-04-09T06:12:23.055Z,58.47
2023-04-09T06:16:24.506Z,44.22
2023-04-09T06:20:26.071Z,45.45
2023-04-09T06:24:27.490Z,45.17
2023-04-09T06:28:29.600Z,44.22
2023-04-09T06:32:33.607Z,42.78
2023-04-09T06:36:40.503Z,39.47
2023-04-09T06:40:42.528Z,41.72
2023-04-09T06:44:43.973Z,45.50
2023-04-09T06:48:46.414Z,39.00
2023-04-09T06:52:48.241Z,33.88
2023-04-09T06:56:49.730Z,44.25
2023-04-09T07:00:51.187Z,44.53
2023-04-09T07:04:52.875Z,41.67
2023-04-09T07:08:54.602Z,45.22
2023-04-09T07:12:56.507Z,37.00
2023-04-09T07:16:57.943Z,40.90
2023-04-09T07:20:59.497Z,43.03
2023-04-09T07:25:01.078Z,37.83
2023-04-09T07:29:03.771Z,38.92
2023-04-09T07:33:05.335Z,40.50
2023-04-09T07:37:06.866Z,43.38
2023-04-09T07:41:11.055Z,36.60
2023-04-09T07:45:12.627Z,37.20
2023-04-09T07:49:14.277Z,35.08
2023-04-09T07:53:16.497Z,37.33
2023-04-09T07:57:18.005Z,37.00
2023-04-09T08:01:24.635Z,36.00
2023-04-09T08:05:26.283Z,34.92
2023-04-09T08:09:27.694Z,31.00
2023-04-09T08:13:29.111Z,32.65
2023-04-09T08:17:31.232Z,31.67
2023-04-09T08:21:32.862Z,35.15
2023-04-09T08:25:34.323Z,36.00
2023-04-09T08:29:35.980Z,30.15
2023-04-09T08:33:37.870Z,33.67
2023-04-09T08:37:39.560Z,28.40
2023-04-09T08:41:46.225Z,24.48
2023-04-09T08:45:51.375Z,27.50
2023-04-09T08:49:52.912Z,27.80
2023-04-09T08:54:03.913Z,31.52
2023-04-09T08:58:10.717Z,30.13
2023-04-09T09:02:12.670Z,29.50
2023-04-09T09:06:21.902Z,26.70
2023-04-09T09:10:37.415Z,28.92
2023-04-09T09:14:38.871Z,29.77
2023-04-09T09:18:42.775Z,30.10
2023-04-09T09:22:54.863Z,27.55
2023-04-09T09:26:59.549Z,26.45
2023-04-09T09:31:11.089Z,26.60
2023-04-09T09:35:12.712Z,30.65
2023-04-09T09:39:17.243Z,29.42
2023-04-09T09:43:18.697Z,28.85
2023-04-09T09:47:21.823Z,27.15
2023-04-09T09:51:27.742Z,25.75
2023-04-09T09:55:32.275Z,26.08
2023-04-09T09:59:39.556Z,23.63
2023-04-09T10:03:44.191Z,25.23
2023-04-09T10:07:46.507Z,25.63
2023-04-09T10:11:48.832Z,24.52
2023-04-09T10:15:52.043Z,22.48
2023-04-09T10:20:11.611Z,23.13
2023-04-09T10:24:13.716Z,25.50
2023-04-09T10:28:17.547Z,25.10
2023-04-09T10:32:26.486Z,25.98
2023-04-09T10:36:31.537Z,24.52
2023-04-09T10:40:33.064Z,27.77
2023-04-09T10:44:38.059Z,25.67
2023-04-09T10:48:39.512Z,24.30
2023-04-09T10:52:42.344Z,26.35
2023-04-09T10:57:16.444Z,27.20
2023-04-09T11:01:24.264Z,28.67
2023-04-09T11:05:28.384Z,27.70
2023-04-09T11:09:29.799Z,27.48
2023-04-09T11:13:32.502Z,27.88
2023-04-09T11:17:36.969Z,28.17
2023-04-09T11:21:46.136Z,29.13
2023-04-09T11:25:51.690Z,25.88
2023-04-09T11:29:56.508Z,25.40
2023-04-09T11:33:57.948Z,26.40
2023-04-09T11:37:59.471Z,25.13
2023-04-09T11:42:01.853Z,25.13
2023-04-09T11:46:04.614Z,26.55
2023-04-09T11:50:07.955Z,24.00
2023-04-09T11:54:11.629Z,25.80
2023-04-09T11:58:13.286Z,24.50
2023-04-09T12:02:19.227Z,25.23
2023-04-09T12:06:25.100Z,24.25
2023-04-09T12:10:32.188Z,21.52
2023-04-09T12:14:34.927Z,24.92
2023-04-09T12:18:38.155Z,21.35
2023-04-09T12:22:41.248Z,21.50
2023-04-09T12:26:43.550Z,18.60
2023-04-09T12:30:45.350Z,20.40
2023-04-09T12:34:47.401Z,18.08
2023-04-09T12:38:48.871Z,17.95
2023-04-09T12:42:50.372Z,15.23
2023-04-09T12:46:51.898Z,13.98
2023-04-09T12:50:53.489Z,17.27
2023-04-09T12:54:55.072Z,15.45
2023-04-09T12:58:56.793Z,15.35
2023-04-09T13:02:58.410Z,12.93
2023-04-09T13:06:59.946Z,13.25
2023-04-09T13:11:01.623Z,16.52
2023-04-09T13:15:03.874Z,13.98
2023-04-09T13:19:06.807Z,13.07
2023-04-09T13:23:08.292Z,12.20
2023-04-09T13:27:11.193Z,14.55
2023-04-09T13:31:12.857Z,16.05
2023-04-09T13:35:14.544Z,13.88
2023-04-09T13:39:16.104Z,10.48
2023-04-09T13:43:17.635Z,40.70
2023-04-09T13:47:19.445Z,15.68
2023-04-09T13:51:24.074Z,16.00
2023-04-09T13:55:25.789Z,13.77
2023-04-09T13:59:27.307Z,14.40
2023-04-09T14:03:28.793Z,14.93
2023-04-09T14:07:30.802Z,12.38
2023-04-09T14:11:32.347Z,15.27
2023-04-09T14:15:34.899Z,13.32
2023-04-09T14:19:36.342Z,14.77
2023-04-09T14:23:39.490Z,13.63
2023-04-09T14:27:41.111Z,13.65
2023-04-09T14:31:42.806Z,13.20
2023-04-09T14:35:44.511Z,11.40
2023-04-09T14:39:46.008Z,11.40
2023-04-09T14:43:47.477Z,9.82
2023-04-09T14:47:48.991Z,13.18
2023-04-09T14:51:50.560Z,10.23
2023-04-09T14:55:51.978Z,10.15
2023-04-09T14:59:53.402Z,10.20
2023-04-09T15:03:55.233Z,12.45
2023-04-09T15:07:57.238Z,11.93
2023-04-09T15:11:58.695Z,10.95
2023-04-09T15:16:00.459Z,10.90
2023-04-09T15:20:02.046Z,9.23
2023-04-09T15:24:03.741Z,8.65
2023-04-09T15:28:06.364Z,10.13
2023-04-09T15:32:07.890Z,9.23
2023-04-09T15:36:09.484Z,11.40
2023-04-09T15:40:11.516Z,13.65
2023-04-09T15:44:12.941Z,9.88
2023-04-09T15:48:14.535Z,11.07
2023-04-09T15:52:16.088Z,12.48
2023-04-09T15:56:17.532Z,11.82
2023-04-09T16:00:19.049Z,12.27
2023-04-09T16:04:20.683Z,13.63
2023-04-09T16:08:22.098Z,13.20
2023-04-09T16:12:24.753Z,16.63
2023-04-09T16:16:26.258Z,18.65
2023-04-09T16:20:29.289Z,22.67
2023-04-09T16:24:31.622Z,19.27
2023-04-09T16:28:33.166Z,21.75
2023-04-09T16:32:34.670Z,19.13
2023-04-09T16:36:38.736Z,20.05
2023-04-09T16:40:40.477Z,19.15
2023-04-09T16:44:42.093Z,22.08
2023-04-09T16:48:43.574Z,18.20
2023-04-09T16:52:45.062Z,20.08
2023-04-09T16:56:48.384Z,17.02
2023-04-09T17:00:51.874Z,17.17
2023-04-09T17:04:53.945Z,17.05
2023-04-09T17:08:55.430Z,18.15
2023-04-09T17:12:56.849Z,16.88
2023-04-09T17:16:58.339Z,17.15
2023-04-09T17:20:59.934Z,16.58
2023-04-09T17:25:01.895Z,18.30
2023-04-09T17:29:03.423Z,18.25
2023-04-09T17:33:04.934Z,16.77
2023-04-09T17:37:06.462Z,16.55
2023-04-09T17:41:07.885Z,16.27
2023-04-09T17:45:09.848Z,17.55
2023-04-09T17:49:11.865Z,16.75
2023-04-09T17:53:13.406Z,18.17
2023-04-09T17:57:15.416Z,17.52
2023-04-09T18:01:17.029Z,17.17
2023-04-09T18:05:18.613Z,16.73
2023-04-09T18:09:20.343Z,16.27
2023-04-09T18:13:22.929Z,31.08
2023-04-09T18:17:26.208Z,47.75
2023-04-09T18:21:28.535Z,20.40
2023-04-09T18:25:30.240Z,18.17
2023-04-09T18:29:31.930Z,19.83
2023-04-09T18:33:34.122Z,19.52
2023-04-09T18:37:35.626Z,18.13
2023-04-09T18:41:37.123Z,18.48
2023-04-09T18:45:42.012Z,22.45
2023-04-09T18:49:43.532Z,18.65
2023-04-09T18:53:45.219Z,20.38
2023-04-09T18:57:47.203Z,18.98
2023-04-09T19:01:48.796Z,18.90
2023-04-09T19:05:51.314Z,18.20
2023-04-09T19:09:52.794Z,16.27
2023-04-09T19:13:54.242Z,18.75
2023-04-09T19:17:56.827Z,18.67
2023-04-09T19:21:58.634Z,21.92
2023-04-09T19:26:01.118Z,20.50
2023-04-09T19:30:04.705Z,20.52
2023-04-09T19:34:06.389Z,22.52
2023-04-09T19:38:08.193Z,24.35
2023-04-09T19:42:09.841Z,24.92
2023-04-09T19:46:11.463Z,21.92
2023-04-09T19:50:13.354Z,24.25
2023-04-09T19:54:16.530Z,25.27
2023-04-09T19:58:17.991Z,25.27
2023-04-09T20:02:19.831Z,70.40
2023-04-09T20:06:21.902Z,41.30
2023-04-09T20:10:23.427Z,26.15
2023-04-09T20:14:25.053Z,26.92
2023-04-09T20:18:26.653Z,27.05
2023-04-09T20:22:28.974Z,32.20
2023-04-09T20:26:30.978Z,32.53
2023-04-09T20:30:32.583Z,31.08
2023-04-09T20:34:34.046Z,32.63
2023-04-09T20:38:35.577Z,33.72
2023-04-09T20:42:38.428Z,31.80
2023-04-09T20:46:39.912Z,35.28
2023-04-09T20:50:42.062Z,30.45
2023-04-09T20:54:43.511Z,35.75
2023-04-09T20:58:45.083Z,36.30
2023-04-09T21:02:46.664Z,32.28
2023-04-09T21:06:48.266Z,29.17
2023-04-09T21:10:49.665Z,35.67
2023-04-09T21:14:51.094Z,36.63
2023-04-09T21:18:53.089Z,39.03
2023-04-09T21:22:54.864Z,34.67
2023-04-09T21:26:56.814Z,33.70
2023-04-09T21:30:58.451Z,36.03
2023-04-09T21:35:00.025Z,32.70
2023-04-09T21:39:01.580Z,39.95
2023-04-09T21:43:03.174Z,40.42
2023-04-09T21:47:07.529Z,42.15
2023-04-09T21:51:10.548Z,34.00
2023-04-09T21:55:12.017Z,36.80
2023-04-09T21:59:13.440Z,36.33
2023-04-09T22:03:15.864Z,36.88
2023-04-09T22:07:17.435Z,39.17
2023-04-09T22:11:19.204Z,36.50
2023-04-09T22:15:21.878Z,37.85
2023-04-09T22:19:26.073Z,39.03
2023-04-09T22:23:27.573Z,36.47
2023-04-09T22:27:29.028Z,37.53
2023-04-09T22:31:30.469Z,40.40
2023-04-09T22:35:32.113Z,45.05
2023-04-09T22:39:33.615Z,41.15
2023-04-09T22:43:35.071Z,44.35
2023-04-09T22:47:37.204Z,44.63
2023-04-09T22:51:41.383Z,37.97
2023-04-09T22:55:43.264Z,40.97
2023-04-09T22:59:44.763Z,42.00
2023-04-09T23:03:46.429Z,38.95
2023-04-09T23:07:48.150Z,40.75
2023-04-09T23:11:49.624Z,37.55
2023-04-09T23:15:51.137Z,35.95
2023-04-09T23:19:52.691Z,38.67
2023-04-09T23:23:54.259Z,37.55
2023-04-09T23:27:55.882Z,37.47
2023-04-09T23:31:57.347Z,39.45
2023-04-09T23:35:58.798Z,39.78
2023-04-09T23:40:00.345Z,37.40
2023-04-09T23:44:01.893Z,34.20
2023-04-09T23:48:07.281Z,41.13
2023-04-09T23:52:08.783Z,37.20
2023-04-09T23:56:10.210Z,39.78
